sensor_id;sensor_type;location;lat;lon;timestamp;P1;durP1;ratioP1;P2;durP2;ratioP2
69244;SDS011;56357;52.304;4.870;2022-10-15T00:00:13;7.05;;;3.03;;
69244;SDS011;56357;52.304;4.870;2022-10-15T00:02:39;8.68;;;3.63;;
69244;SDS011;56357;52.304;4.870;2022-10-15T00:05:05;6.67;;;2.80;;
69244;SDS011;56357;52.304;4.870;2022-10-15T00:07:32;6.40;;;2.83;;
69244;SDS011;56357;52.304;4.870;2022-10-15T00:09:58;6.45;;;2.95;;
69244;SDS011;56357;52.304;4.870;2022-10-15T00:12:25;8.30;;;3.33;;
69244;SDS011;56357;52.304;4.870;2022-10-15T00:14:51;7.75;;;3.63;;
69244;SDS011;56357;52.304;4.870;2022-10-15T00:17:17;7.17;;;3.10;;
69244;SDS011;56357;52.304;4.870;2022-10-15T00:19:44;7.45;;;3.45;;
69244;SDS011;56357;52.304;4.870;2022-10-15T00:22:10;9.10;;;3.33;;
69244;SDS011;56357;52.304;4.870;2022-10-15T00:24:37;10.55;;;4.38;;
69244;SDS011;56357;52.304;4.870;2022-10-15T00:27:03;6.43;;;3.15;;
69244;SDS011;56357;52.304;4.870;2022-10-15T00:29:29;8.27;;;3.33;;
69244;SDS011;56357;52.304;4.870;2022-10-15T00:31:56;8.13;;;3.55;;
69244;SDS011;56357;52.304;4.870;2022-10-15T00:34:22;7.05;;;3.38;;
69244;SDS011;56357;52.304;4.870;2022-10-15T00:36:49;8.25;;;3.22;;
69244;SDS011;56357;52.304;4.870;2022-10-15T00:39:16;9.52;;;4.10;;
69244;SDS011;56357;52.304;4.870;2022-10-15T00:41:43;8.57;;;3.80;;
69244;SDS011;56357;52.304;4.870;2022-10-15T00:46:47;10.10;;;3.90;;
69244;SDS011;56357;52.304;4.870;2022-10-15T00:49:19;7.90;;;3.50;;
69244;SDS011;56357;52.304;4.870;2022-10-15T00:54:33;8.40;;;3.47;;
69244;SDS011;56357;52.304;4.870;2022-10-15T00:57:07;8.63;;;4.22;;
69244;SDS011;56357;52.304;4.870;2022-10-15T00:59:37;8.25;;;3.97;;
69244;SDS011;56357;52.304;4.870;2022-10-15T01:02:08;8.38;;;3.40;;
69244;SDS011;56357;52.304;4.870;2022-10-15T01:04:36;8.90;;;3.90;;
69244;SDS011;56357;52.304;4.870;2022-10-15T01:07:03;8.20;;;4.10;;
69244;SDS011;56357;52.304;4.870;2022-10-15T01:09:29;8.75;;;3.70;;
69244;SDS011;56357;52.304;4.870;2022-10-15T01:11:55;9.65;;;4.22;;
69244;SDS011;56357;52.304;4.870;2022-10-15T01:19:38;9.70;;;3.80;;
69244;SDS011;56357;52.304;4.870;2022-10-15T01:22:18;7.93;;;3.80;;
69244;SDS011;56357;52.304;4.870;2022-10-15T01:33:05;8.27;;;4.17;;
69244;SDS011;56357;52.304;4.870;2022-10-15T01:35:43;7.95;;;3.40;;
69244;SDS011;56357;52.304;4.870;2022-10-15T01:44:33;9.38;;;4.18;;
69244;SDS011;56357;52.304;4.870;2022-10-15T01:47:24;8.47;;;4.20;;
69244;SDS011;56357;52.304;4.870;2022-10-15T01:49:59;8.00;;;4.07;;
69244;SDS011;56357;52.304;4.870;2022-10-15T01:52:29;8.88;;;4.75;;
69244;SDS011;56357;52.304;4.870;2022-10-15T01:54:58;10.05;;;4.82;;
69244;SDS011;56357;52.304;4.870;2022-10-15T01:57:26;7.63;;;3.83;;
69244;SDS011;56357;52.304;4.870;2022-10-15T01:59:55;8.13;;;4.30;;
69244;SDS011;56357;52.304;4.870;2022-10-15T02:02:22;8.15;;;3.83;;
69244;SDS011;56357;52.304;4.870;2022-10-15T02:04:49;9.88;;;4.47;;
69244;SDS011;56357;52.304;4.870;2022-10-15T02:07:22;8.55;;;4.20;;
69244;SDS011;56357;52.304;4.870;2022-10-15T02:21:02;8.60;;;4.28;;
69244;SDS011;56357;52.304;4.870;2022-10-15T02:23:42;9.60;;;5.07;;
69244;SDS011;56357;52.304;4.870;2022-10-15T02:26:13;9.83;;;4.60;;
69244;SDS011;56357;52.304;4.870;2022-10-15T02:28:42;8.65;;;4.40;;
69244;SDS011;56357;52.304;4.870;2022-10-15T02:31:12;10.27;;;4.68;;
69244;SDS011;56357;52.304;4.870;2022-10-15T02:33:41;9.95;;;4.50;;
69244;SDS011;56357;52.304;4.870;2022-10-15T02:36:09;9.00;;;4.45;;
69244;SDS011;56357;52.304;4.870;2022-10-15T02:38:36;10.17;;;5.00;;
69244;SDS011;56357;52.304;4.870;2022-10-15T02:41:06;10.00;;;4.30;;
69244;SDS011;56357;52.304;4.870;2022-10-15T02:43:34;10.70;;;4.60;;
69244;SDS011;56357;52.304;4.870;2022-10-15T02:46:01;10.23;;;4.63;;
69244;SDS011;56357;52.304;4.870;2022-10-15T02:48:27;8.90;;;4.20;;
69244;SDS011;56357;52.304;4.870;2022-10-15T02:50:53;9.53;;;4.43;;
69244;SDS011;56357;52.304;4.870;2022-10-15T02:53:20;9.82;;;3.80;;
69244;SDS011;56357;52.304;4.870;2022-10-15T02:55:46;10.75;;;4.97;;
69244;SDS011;56357;52.304;4.870;2022-10-15T02:58:12;9.55;;;4.80;;
69244;SDS011;56357;52.304;4.870;2022-10-15T03:00:39;10.90;;;5.78;;
69244;SDS011;56357;52.304;4.870;2022-10-15T03:03:05;8.63;;;3.60;;
69244;SDS011;56357;52.304;4.870;2022-10-15T03:05:32;9.63;;;4.15;;
69244;SDS011;56357;52.304;4.870;2022-10-15T03:08:00;9.02;;;4.50;;
69244;SDS011;56357;52.304;4.870;2022-10-15T03:10:26;9.43;;;4.28;;
69244;SDS011;56357;52.304;4.870;2022-10-15T03:12:53;10.20;;;4.55;;
69244;SDS011;56357;52.304;4.870;2022-10-15T03:15:19;9.47;;;5.00;;
69244;SDS011;56357;52.304;4.870;2022-10-15T03:17:45;10.75;;;5.05;;
69244;SDS011;56357;52.304;4.870;2022-10-15T03:20:12;9.88;;;4.90;;
69244;SDS011;56357;52.304;4.870;2022-10-15T03:22:38;9.73;;;5.18;;
69244;SDS011;56357;52.304;4.870;2022-10-15T03:25:04;10.82;;;5.20;;
69244;SDS011;56357;52.304;4.870;2022-10-15T03:27:31;10.57;;;5.17;;
69244;SDS011;56357;52.304;4.870;2022-10-15T03:29:57;8.90;;;4.65;;
69244;SDS011;56357;52.304;4.870;2022-10-15T03:32:24;10.88;;;5.45;;
69244;SDS011;56357;52.304;4.870;2022-10-15T03:34:50;8.80;;;4.40;;
69244;SDS011;56357;52.304;4.870;2022-10-15T03:37:17;10.52;;;5.50;;
69244;SDS011;56357;52.304;4.870;2022-10-15T03:39:43;9.73;;;5.00;;
69244;SDS011;56357;52.304;4.870;2022-10-15T03:42:09;10.68;;;5.50;;
69244;SDS011;56357;52.304;4.870;2022-10-15T03:44:36;10.57;;;4.97;;
69244;SDS011;56357;52.304;4.870;2022-10-15T03:47:02;10.75;;;5.65;;
69244;SDS011;56357;52.304;4.870;2022-10-15T03:49:28;10.65;;;5.18;;
69244;SDS011;56357;52.304;4.870;2022-10-15T03:51:55;10.57;;;4.87;;
69244;SDS011;56357;52.304;4.870;2022-10-15T03:54:21;11.80;;;5.63;;
69244;SDS011;56357;52.304;4.870;2022-10-15T03:56:47;10.15;;;4.95;;
69244;SDS011;56357;52.304;4.870;2022-10-15T03:59:14;9.32;;;4.63;;
69244;SDS011;56357;52.304;4.870;2022-10-15T04:01:42;10.70;;;5.63;;
69244;SDS011;56357;52.304;4.870;2022-10-15T04:04:09;9.67;;;4.63;;
69244;SDS011;56357;52.304;4.870;2022-10-15T04:06:36;10.00;;;4.80;;
69244;SDS011;56357;52.304;4.870;2022-10-15T04:09:03;8.80;;;4.70;;
69244;SDS011;56357;52.304;4.870;2022-10-15T04:11:29;11.32;;;5.32;;
69244;SDS011;56357;52.304;4.870;2022-10-15T04:13:56;9.25;;;4.55;;
69244;SDS011;56357;52.304;4.870;2022-10-15T04:16:22;11.37;;;5.20;;
69244;SDS011;56357;52.304;4.870;2022-10-15T04:18:48;10.35;;;4.43;;
69244;SDS011;56357;52.304;4.870;2022-10-15T04:21:15;10.00;;;4.72;;
69244;SDS011;56357;52.304;4.870;2022-10-15T04:23:41;9.57;;;4.50;;
69244;SDS011;56357;52.304;4.870;2022-10-15T04:26:08;9.88;;;4.97;;
69244;SDS011;56357;52.304;4.870;2022-10-15T04:28:34;9.10;;;4.67;;
69244;SDS011;56357;52.304;4.870;2022-10-15T04:31:00;10.88;;;5.03;;
69244;SDS011;56357;52.304;4.870;2022-10-15T04:33:27;10.20;;;5.10;;
69244;SDS011;56357;52.304;4.870;2022-10-15T04:36:01;9.63;;;4.93;;
69244;SDS011;56357;52.304;4.870;2022-10-15T04:38:30;10.02;;;4.78;;
69244;SDS011;56357;52.304;4.870;2022-10-15T04:41:01;9.77;;;5.03;;
69244;SDS011;56357;52.304;4.870;2022-10-15T04:43:30;9.35;;;4.55;;
69244;SDS011;56357;52.304;4.870;2022-10-15T04:46:01;11.05;;;5.47;;
69244;SDS011;56357;52.304;4.870;2022-10-15T04:48:29;9.82;;;5.20;;
69244;SDS011;56357;52.304;4.870;2022-10-15T04:51:04;9.77;;;5.07;;
69244;SDS011;56357;52.304;4.870;2022-10-15T04:53:30;8.73;;;4.70;;
69244;SDS011;56357;52.304;4.870;2022-10-15T04:56:01;10.95;;;5.05;;
69244;SDS011;56357;52.304;4.870;2022-10-15T04:58:31;8.75;;;4.80;;
69244;SDS011;56357;52.304;4.870;2022-10-15T05:00:59;8.23;;;4.47;;
69244;SDS011;56357;52.304;4.870;2022-10-15T05:03:31;11.60;;;5.30;;
69244;SDS011;56357;52.304;4.870;2022-10-15T05:05:59;9.77;;;4.80;;
69244;SDS011;56357;52.304;4.870;2022-10-15T05:08:27;9.13;;;4.22;;
69244;SDS011;56357;52.304;4.870;2022-10-15T05:10:58;7.78;;;3.85;;
69244;SDS011;56357;52.304;4.870;2022-10-15T05:13:29;9.27;;;4.97;;
69244;SDS011;56357;52.304;4.870;2022-10-15T05:15:56;8.57;;;4.07;;
69244;SDS011;56357;52.304;4.870;2022-10-15T05:18:22;7.23;;;3.87;;
69244;SDS011;56357;52.304;4.870;2022-10-15T05:20:49;9.55;;;4.72;;
69244;SDS011;56357;52.304;4.870;2022-10-15T05:23:15;8.73;;;3.72;;
69244;SDS011;56357;52.304;4.870;2022-10-15T05:25:41;8.38;;;4.55;;
69244;SDS011;56357;52.304;4.870;2022-10-15T05:28:08;8.95;;;4.75;;
69244;SDS011;56357;52.304;4.870;2022-10-15T05:30:35;9.03;;;4.43;;
69244;SDS011;56357;52.304;4.870;2022-10-15T05:33:01;11.82;;;4.45;;
69244;SDS011;56357;52.304;4.870;2022-10-15T05:35:27;8.00;;;4.20;;
69244;SDS011;56357;52.304;4.870;2022-10-15T05:37:54;8.20;;;4.07;;
69244;SDS011;56357;52.304;4.870;2022-10-15T05:40:20;9.85;;;4.75;;
69244;SDS011;56357;52.304;4.870;2022-10-15T05:42:49;7.50;;;4.03;;
69244;SDS011;56357;52.304;4.870;2022-10-15T05:45:17;11.30;;;4.45;;
69244;SDS011;56357;52.304;4.870;2022-10-15T05:47:43;10.02;;;4.75;;
69244;SDS011;56357;52.304;4.870;2022-10-15T05:50:10;9.48;;;4.55;;
69244;SDS011;56357;52.304;4.870;2022-10-15T05:52:36;12.15;;;5.80;;
69244;SDS011;56357;52.304;4.870;2022-10-15T05:55:03;10.63;;;5.23;;
69244;SDS011;56357;52.304;4.870;2022-10-15T05:57:29;8.75;;;4.35;;
69244;SDS011;56357;52.304;4.870;2022-10-15T05:59:56;10.23;;;4.95;;
69244;SDS011;56357;52.304;4.870;2022-10-15T06:02:22;10.52;;;4.72;;
69244;SDS011;56357;52.304;4.870;2022-10-15T06:04:48;10.20;;;5.70;;
69244;SDS011;56357;52.304;4.870;2022-10-15T06:07:17;10.80;;;5.40;;
69244;SDS011;56357;52.304;4.870;2022-10-15T06:09:44;10.75;;;5.05;;
69244;SDS011;56357;52.304;4.870;2022-10-15T06:12:10;10.75;;;4.68;;
69244;SDS011;56357;52.304;4.870;2022-10-15T06:14:36;10.57;;;5.00;;
69244;SDS011;56357;52.304;4.870;2022-10-15T06:17:03;8.73;;;4.47;;
69244;SDS011;56357;52.304;4.870;2022-10-15T06:19:29;10.07;;;4.57;;
69244;SDS011;56357;52.304;4.870;2022-10-15T06:21:56;10.43;;;4.60;;
69244;SDS011;56357;52.304;4.870;2022-10-15T06:24:22;13.13;;;4.97;;
69244;SDS011;56357;52.304;4.870;2022-10-15T06:26:49;10.07;;;4.95;;
69244;SDS011;56357;52.304;4.870;2022-10-15T06:29:15;10.20;;;4.55;;
69244;SDS011;56357;52.304;4.870;2022-10-15T06:31:41;11.03;;;5.20;;
69244;SDS011;56357;52.304;4.870;2022-10-15T06:34:08;11.18;;;5.20;;
69244;SDS011;56357;52.304;4.870;2022-10-15T06:36:34;12.93;;;5.82;;
69244;SDS011;56357;52.304;4.870;2022-10-15T06:39:01;10.32;;;4.72;;
69244;SDS011;56357;52.304;4.870;2022-10-15T06:41:27;14.30;;;5.53;;
69244;SDS011;56357;52.304;4.870;2022-10-15T06:43:54;13.20;;;5.53;;
69244;SDS011;56357;52.304;4.870;2022-10-15T06:46:20;14.95;;;5.43;;
69244;SDS011;56357;52.304;4.870;2022-10-15T06:48:47;11.25;;;4.90;;
69244;SDS011;56357;52.304;4.870;2022-10-15T06:51:13;12.60;;;5.40;;
69244;SDS011;56357;52.304;4.870;2022-10-15T06:53:40;13.73;;;5.72;;
69244;SDS011;56357;52.304;4.870;2022-10-15T06:56:07;12.10;;;4.73;;
69244;SDS011;56357;52.304;4.870;2022-10-15T06:58:34;16.77;;;5.80;;
69244;SDS011;56357;52.304;4.870;2022-10-15T07:01:04;11.50;;;5.85;;
69244;SDS011;56357;52.304;4.870;2022-10-15T07:03:32;16.65;;;6.00;;
69244;SDS011;56357;52.304;4.870;2022-10-15T07:06:00;15.57;;;5.90;;
69244;SDS011;56357;52.304;4.870;2022-10-15T07:08:31;13.37;;;5.03;;
69244;SDS011;56357;52.304;4.870;2022-10-15T07:10:59;12.55;;;5.32;;
69244;SDS011;56357;52.304;4.870;2022-10-15T07:13:26;13.63;;;5.90;;
69244;SDS011;56357;52.304;4.870;2022-10-15T07:15:54;13.93;;;5.60;;
69244;SDS011;56357;52.304;4.870;2022-10-15T07:18:20;15.48;;;6.00;;
69244;SDS011;56357;52.304;4.870;2022-10-15T07:20:47;12.70;;;5.57;;
69244;SDS011;56357;52.304;4.870;2022-10-15T07:23:14;18.35;;;5.97;;
69244;SDS011;56357;52.304;4.870;2022-10-15T07:25:40;17.50;;;6.05;;
69244;SDS011;56357;52.304;4.870;2022-10-15T07:28:06;16.95;;;6.47;;
69244;SDS011;56357;52.304;4.870;2022-10-15T07:30:33;12.73;;;5.80;;
69244;SDS011;56357;52.304;4.870;2022-10-15T07:32:59;13.87;;;6.90;;
69244;SDS011;56357;52.304;4.870;2022-10-15T07:35:26;22.23;;;8.80;;
69244;SDS011;56357;52.304;4.870;2022-10-15T07:37:53;24.52;;;11.52;;
69244;SDS011;56357;52.304;4.870;2022-10-15T07:40:20;21.83;;;11.25;;
69244;SDS011;56357;52.304;4.870;2022-10-15T07:42:53;25.17;;;11.60;;
69244;SDS011;56357;52.304;4.870;2022-10-15T07:45:20;21.07;;;10.33;;
69244;SDS011;56357;52.304;4.870;2022-10-15T07:47:47;21.10;;;10.40;;
69244;SDS011;56357;52.304;4.870;2022-10-15T07:50:13;18.67;;;9.10;;
69244;SDS011;56357;52.304;4.870;2022-10-15T07:52:39;22.33;;;9.30;;
69244;SDS011;56357;52.304;4.870;2022-10-15T07:55:06;22.70;;;8.63;;
69244;SDS011;56357;52.304;4.870;2022-10-15T07:57:33;18.67;;;8.57;;
69244;SDS011;56357;52.304;4.870;2022-10-15T07:59:59;21.83;;;9.38;;
69244;SDS011;56357;52.304;4.870;2022-10-15T08:02:25;17.02;;;8.18;;
69244;SDS011;56357;52.304;4.870;2022-10-15T08:04:52;18.83;;;8.35;;
69244;SDS011;56357;52.304;4.870;2022-10-15T08:07:18;23.33;;;8.50;;
69244;SDS011;56357;52.304;4.870;2022-10-15T08:09:44;16.63;;;8.07;;
69244;SDS011;56357;52.304;4.870;2022-10-15T08:12:11;18.52;;;8.20;;
69244;SDS011;56357;52.304;4.870;2022-10-15T08:14:37;19.27;;;7.97;;
69244;SDS011;56357;52.304;4.870;2022-10-15T08:17:04;13.68;;;7.30;;
69244;SDS011;56357;52.304;4.870;2022-10-15T08:19:31;16.90;;;8.10;;
69244;SDS011;56357;52.304;4.870;2022-10-15T08:21:58;19.17;;;8.20;;
69244;SDS011;56357;52.304;4.870;2022-10-15T08:24:25;20.70;;;7.68;;
69244;SDS011;56357;52.304;4.870;2022-10-15T08:26:51;17.02;;;8.10;;
69244;SDS011;56357;52.304;4.870;2022-10-15T08:29:18;19.08;;;7.55;;
69244;SDS011;56357;52.304;4.870;2022-10-15T08:31:44;18.30;;;8.15;;
69244;SDS011;56357;52.304;4.870;2022-10-15T08:34:10;18.77;;;7.97;;
69244;SDS011;56357;52.304;4.870;2022-10-15T08:36:37;18.13;;;7.78;;
69244;SDS011;56357;52.304;4.870;2022-10-15T08:39:03;27.13;;;11.27;;
69244;SDS011;56357;52.304;4.870;2022-10-15T08:41:31;25.67;;;10.20;;
69244;SDS011;56357;52.304;4.870;2022-10-15T08:44:05;25.05;;;10.07;;
69244;SDS011;56357;52.304;4.870;2022-10-15T08:46:41;21.37;;;9.80;;
69244;SDS011;56357;52.304;4.870;2022-10-15T08:49:13;24.02;;;9.77;;
69244;SDS011;56357;52.304;4.870;2022-10-15T08:51:50;22.23;;;9.70;;
69244;SDS011;56357;52.304;4.870;2022-10-15T08:54:20;21.50;;;9.18;;
69244;SDS011;56357;52.304;4.870;2022-10-15T08:56:47;18.88;;;8.65;;
69244;SDS011;56357;52.304;4.870;2022-10-15T09:07:41;18.50;;;7.82;;
69244;SDS011;56357;52.304;4.870;2022-10-15T09:15:55;48.33;;;10.15;;
69244;SDS011;56357;52.304;4.870;2022-10-15T09:18:24;76.00;;;13.43;;
69244;SDS011;56357;52.304;4.870;2022-10-15T09:20:55;41.80;;;9.93;;
69244;SDS011;56357;52.304;4.870;2022-10-15T09:23:25;330.75;;;33.90;;
69244;SDS011;56357;52.304;4.870;2022-10-15T09:28:37;142.77;;;19.10;;
69244;SDS011;56357;52.304;4.870;2022-10-15T09:31:17;112.32;;;16.42;;
69244;SDS011;56357;52.304;4.870;2022-10-15T09:33:53;91.93;;;14.38;;
69244;SDS011;56357;52.304;4.870;2022-10-15T09:42:09;75.50;;;13.13;;
69244;SDS011;56357;52.304;4.870;2022-10-15T09:44:39;65.13;;;11.90;;
69244;SDS011;56357;52.304;4.870;2022-10-15T09:49:51;65.55;;;12.15;;
69244;SDS011;56357;52.304;4.870;2022-10-15T09:52:41;54.00;;;10.70;;
69244;SDS011;56357;52.304;4.870;2022-10-15T09:58:01;36.13;;;9.88;;
69244;SDS011;56357;52.304;4.870;2022-10-15T10:03:22;42.38;;;9.13;;
69244;SDS011;56357;52.304;4.870;2022-10-15T10:05:50;51.57;;;9.93;;
69244;SDS011;56357;52.304;4.870;2022-10-15T10:08:31;50.75;;;9.95;;
69244;SDS011;56357;52.304;4.870;2022-10-15T10:11:01;36.22;;;7.90;;
69244;SDS011;56357;52.304;4.870;2022-10-15T10:16:14;41.15;;;9.38;;
69244;SDS011;56357;52.304;4.870;2022-10-15T10:18:42;42.77;;;9.70;;
69244;SDS011;56357;52.304;4.870;2022-10-15T10:21:31;33.80;;;8.23;;
69244;SDS011;56357;52.304;4.870;2022-10-15T10:24:16;40.97;;;8.52;;
69244;SDS011;56357;52.304;4.870;2022-10-15T10:26:45;39.85;;;8.98;;
69244;SDS011;56357;52.304;4.870;2022-10-15T10:29:15;29.20;;;8.18;;
69244;SDS011;56357;52.304;4.870;2022-10-15T10:31:45;27.47;;;7.57;;
69244;SDS011;56357;52.304;4.870;2022-10-15T10:34:16;30.90;;;7.30;;
69244;SDS011;56357;52.304;4.870;2022-10-15T10:36:53;31.17;;;8.13;;
69244;SDS011;56357;52.304;4.870;2022-10-15T10:41:56;29.80;;;6.68;;
69244;SDS011;56357;52.304;4.870;2022-10-15T10:44:31;27.37;;;7.47;;
69244;SDS011;56357;52.304;4.870;2022-10-15T10:49:43;28.58;;;6.70;;
69244;SDS011;56357;52.304;4.870;2022-10-15T10:52:18;24.25;;;6.50;;
69244;SDS011;56357;52.304;4.870;2022-10-15T10:54:52;21.58;;;7.20;;
69244;SDS011;56357;52.304;4.870;2022-10-15T10:57:48;23.20;;;6.23;;
69244;SDS011;56357;52.304;4.870;2022-10-15T11:00:24;22.98;;;6.47;;
69244;SDS011;56357;52.304;4.870;2022-10-15T11:02:58;26.13;;;7.03;;
69244;SDS011;56357;52.304;4.870;2022-10-15T11:05:26;30.48;;;6.63;;
69244;SDS011;56357;52.304;4.870;2022-10-15T11:08:13;36.33;;;7.32;;
69244;SDS011;56357;52.304;4.870;2022-10-15T11:16:56;20.42;;;6.00;;
69244;SDS011;56357;52.304;4.870;2022-10-15T11:19:37;22.13;;;6.05;;
69244;SDS011;56357;52.304;4.870;2022-10-15T11:30:49;23.05;;;5.63;;
69244;SDS011;56357;52.304;4.870;2022-10-15T11:36:22;25.38;;;6.00;;
69244;SDS011;56357;52.304;4.870;2022-10-15T11:41:51;23.00;;;5.40;;
69244;SDS011;56357;52.304;4.870;2022-10-15T11:49:57;18.75;;;4.90;;
69244;SDS011;56357;52.304;4.870;2022-10-15T11:53:00;19.87;;;5.50;;
69244;SDS011;56357;52.304;4.870;2022-10-15T11:55:36;17.60;;;4.95;;
69244;SDS011;56357;52.304;4.870;2022-10-15T11:58:10;17.55;;;4.50;;
69244;SDS011;56357;52.304;4.870;2022-10-15T12:00:45;21.05;;;4.82;;
69244;SDS011;56357;52.304;4.870;2022-10-15T12:03:20;17.88;;;4.68;;
69244;SDS011;56357;52.304;4.870;2022-10-15T12:08:19;14.10;;;4.32;;
69244;SDS011;56357;52.304;4.870;2022-10-15T12:13:44;17.08;;;4.18;;
69244;SDS011;56357;52.304;4.870;2022-10-15T12:16:28;15.68;;;4.13;;
69244;SDS011;56357;52.304;4.870;2022-10-15T12:19:16;12.90;;;3.73;;
69244;SDS011;56357;52.304;4.870;2022-10-15T12:25:04;11.15;;;4.28;;
69244;SDS011;56357;52.304;4.870;2022-10-15T12:29:47;16.33;;;3.95;;
69244;SDS011;56357;52.304;4.870;2022-10-15T12:32:26;11.97;;;4.33;;
69244;SDS011;56357;52.304;4.870;2022-10-15T12:37:21;13.15;;;3.95;;
69244;SDS011;56357;52.304;4.870;2022-10-15T12:39:56;12.50;;;4.60;;
69244;SDS011;56357;52.304;4.870;2022-10-15T12:42:29;13.65;;;4.15;;
69244;SDS011;56357;52.304;4.870;2022-10-15T12:44:58;16.93;;;4.27;;
69244;SDS011;56357;52.304;4.870;2022-10-15T12:48:29;15.13;;;3.63;;
69244;SDS011;56357;52.304;4.870;2022-10-15T12:50:30;11.68;;;3.90;;
69244;SDS011;56357;52.304;4.870;2022-10-15T12:55:33;14.95;;;4.00;;
69244;SDS011;56357;52.304;4.870;2022-10-15T12:58:02;11.37;;;3.70;;
69244;SDS011;56357;52.304;4.870;2022-10-15T13:00:32;16.67;;;3.85;;
69244;SDS011;56357;52.304;4.870;2022-10-15T13:03:07;11.85;;;4.05;;
69244;SDS011;56357;52.304;4.870;2022-10-15T13:05:47;11.70;;;3.70;;
69244;SDS011;56357;52.304;4.870;2022-10-15T13:08:17;10.52;;;3.45;;
69244;SDS011;56357;52.304;4.870;2022-10-15T13:10:49;11.43;;;3.50;;
69244;SDS011;56357;52.304;4.870;2022-10-15T13:13:18;12.07;;;3.80;;
69244;SDS011;56357;52.304;4.870;2022-10-15T13:15:51;11.45;;;3.55;;
69244;SDS011;56357;52.304;4.870;2022-10-15T13:18:28;11.40;;;2.95;;
69244;SDS011;56357;52.304;4.870;2022-10-15T13:20:55;13.95;;;3.08;;
69244;SDS011;56357;52.304;4.870;2022-10-15T13:23:24;9.87;;;3.23;;
69244;SDS011;56357;52.304;4.870;2022-10-15T13:28:41;7.97;;;2.60;;
69244;SDS011;56357;52.304;4.870;2022-10-15T13:31:16;11.68;;;3.55;;
69244;SDS011;56357;52.304;4.870;2022-10-15T13:33:48;8.68;;;3.13;;
69244;SDS011;56357;52.304;4.870;2022-10-15T13:36:22;10.37;;;3.30;;
69244;SDS011;56357;52.304;4.870;2022-10-15T13:38:57;7.63;;;2.58;;
69244;SDS011;56357;52.304;4.870;2022-10-15T13:41:29;10.05;;;3.47;;
69244;SDS011;56357;52.304;4.870;2022-10-15T13:43:58;8.68;;;3.10;;
69244;SDS011;56357;52.304;4.870;2022-10-15T13:46:27;10.73;;;3.33;;
69244;SDS011;56357;52.304;4.870;2022-10-15T13:49:02;7.67;;;2.97;;
69244;SDS011;56357;52.304;4.870;2022-10-15T13:51:45;9.65;;;2.65;;
69244;SDS011;56357;52.304;4.870;2022-10-15T13:54:24;12.73;;;2.88;;
69244;SDS011;56357;52.304;4.870;2022-10-15T13:56:59;8.88;;;2.40;;
69244;SDS011;56357;52.304;4.870;2022-10-15T13:59:27;12.73;;;2.55;;
69244;SDS011;56357;52.304;4.870;2022-10-15T14:01:56;9.47;;;2.30;;
69244;SDS011;56357;52.304;4.870;2022-10-15T14:04:26;9.18;;;2.45;;
69244;SDS011;56357;52.304;4.870;2022-10-15T14:06:58;8.15;;;2.00;;
69244;SDS011;56357;52.304;4.870;2022-10-15T14:09:33;9.07;;;2.70;;
69244;SDS011;56357;52.304;4.870;2022-10-15T14:12:04;13.73;;;2.40;;
69244;SDS011;56357;52.304;4.870;2022-10-15T14:14:35;9.83;;;2.53;;
69244;SDS011;56357;52.304;4.870;2022-10-15T14:17:27;9.13;;;2.10;;
69244;SDS011;56357;52.304;4.870;2022-10-15T14:19:56;8.50;;;1.90;;
69244;SDS011;56357;52.304;4.870;2022-10-15T14:22:25;10.43;;;2.50;;
69244;SDS011;56357;52.304;4.870;2022-10-15T14:24:53;9.30;;;2.20;;
69244;SDS011;56357;52.304;4.870;2022-10-15T14:27:22;8.87;;;2.13;;
69244;SDS011;56357;52.304;4.870;2022-10-15T14:29:51;6.80;;;1.98;;
69244;SDS011;56357;52.304;4.870;2022-10-15T14:32:20;7.32;;;2.13;;
69244;SDS011;56357;52.304;4.870;2022-10-15T14:34:47;14.13;;;2.08;;
69244;SDS011;56357;52.304;4.870;2022-10-15T14:40:17;7.77;;;1.90;;
69244;SDS011;56357;52.304;4.870;2022-10-15T14:43:12;8.30;;;1.50;;
69244;SDS011;56357;52.304;4.870;2022-10-15T14:45:42;8.00;;;1.80;;
69244;SDS011;56357;52.304;4.870;2022-10-15T14:48:23;7.18;;;1.25;;
69244;SDS011;56357;52.304;4.870;2022-10-15T14:50:51;4.07;;;1.08;;
69244;SDS011;56357;52.304;4.870;2022-10-15T14:53:24;5.37;;;1.10;;
69244;SDS011;56357;52.304;4.870;2022-10-15T14:55:56;7.50;;;1.30;;
69244;SDS011;56357;52.304;4.870;2022-10-15T14:58:25;8.10;;;1.50;;
69244;SDS011;56357;52.304;4.870;2022-10-15T15:00:55;8.20;;;1.33;;
69244;SDS011;56357;52.304;4.870;2022-10-15T15:03:30;7.70;;;1.10;;
69244;SDS011;56357;52.304;4.870;2022-10-15T15:06:04;6.47;;;1.07;;
69244;SDS011;56357;52.304;4.870;2022-10-15T15:08:31;7.70;;;1.42;;
69244;SDS011;56357;52.304;4.870;2022-10-15T15:10:59;8.23;;;1.30;;
69244;SDS011;56357;52.304;4.870;2022-10-15T15:13:28;6.95;;;1.23;;
69244;SDS011;56357;52.304;4.870;2022-10-15T15:15:57;5.45;;;1.17;;
69244;SDS011;56357;52.304;4.870;2022-10-15T15:18:23;5.57;;;1.30;;
69244;SDS011;56357;52.304;4.870;2022-10-15T15:20:50;7.78;;;1.30;;
69244;SDS011;56357;52.304;4.870;2022-10-15T15:23:17;7.63;;;1.20;;
69244;SDS011;56357;52.304;4.870;2022-10-15T15:25:46;10.80;;;1.40;;
69244;SDS011;56357;52.304;4.870;2022-10-15T15:28:14;6.78;;;1.08;;
69244;SDS011;56357;52.304;4.870;2022-10-15T15:30:44;4.57;;;1.57;;
69244;SDS011;56357;52.304;4.870;2022-10-15T15:33:12;6.90;;;1.40;;
69244;SDS011;56357;52.304;4.870;2022-10-15T15:35:41;8.60;;;1.65;;
69244;SDS011;56357;52.304;4.870;2022-10-15T15:38:15;5.55;;;1.13;;
69244;SDS011;56357;52.304;4.870;2022-10-15T15:40:42;7.57;;;1.27;;
69244;SDS011;56357;52.304;4.870;2022-10-15T15:43:10;6.20;;;0.90;;
69244;SDS011;56357;52.304;4.870;2022-10-15T15:45:38;5.03;;;0.73;;
69244;SDS011;56357;52.304;4.870;2022-10-15T15:48:05;7.38;;;1.15;;
69244;SDS011;56357;52.304;4.870;2022-10-15T15:50:32;4.75;;;1.10;;
69244;SDS011;56357;52.304;4.870;2022-10-15T15:52:59;6.75;;;1.42;;
69244;SDS011;56357;52.304;4.870;2022-10-15T15:55:26;9.63;;;1.53;;
69244;SDS011;56357;52.304;4.870;2022-10-15T15:57:53;8.55;;;1.02;;
69244;SDS011;56357;52.304;4.870;2022-10-15T16:00:20;8.75;;;1.30;;
69244;SDS011;56357;52.304;4.870;2022-10-15T16:02:46;5.05;;;1.10;;
69244;SDS011;56357;52.304;4.870;2022-10-15T16:05:13;5.22;;;0.85;;
69244;SDS011;56357;52.304;4.870;2022-10-15T16:07:42;6.13;;;0.93;;
69244;SDS011;56357;52.304;4.870;2022-10-15T16:10:09;6.28;;;0.80;;
69244;SDS011;56357;52.304;4.870;2022-10-15T16:12:37;9.07;;;1.13;;
69244;SDS011;56357;52.304;4.870;2022-10-15T16:15:04;6.72;;;1.25;;
69244;SDS011;56357;52.304;4.870;2022-10-15T16:17:31;9.93;;;1.02;;
69244;SDS011;56357;52.304;4.870;2022-10-15T16:19:58;7.63;;;0.77;;
69244;SDS011;56357;52.304;4.870;2022-10-15T16:22:24;7.03;;;1.35;;
69244;SDS011;56357;52.304;4.870;2022-10-15T16:24:51;7.43;;;1.15;;
69244;SDS011;56357;52.304;4.870;2022-10-15T16:27:17;7.55;;;0.98;;
69244;SDS011;56357;52.304;4.870;2022-10-15T16:29:44;6.55;;;0.85;;
69244;SDS011;56357;52.304;4.870;2022-10-15T16:32:10;5.87;;;0.87;;
69244;SDS011;56357;52.304;4.870;2022-10-15T16:34:37;6.78;;;1.17;;
69244;SDS011;56357;52.304;4.870;2022-10-15T16:37:04;7.70;;;1.10;;
69244;SDS011;56357;52.304;4.870;2022-10-15T16:39:30;10.32;;;1.15;;
69244;SDS011;56357;52.304;4.870;2022-10-15T16:41:57;6.03;;;0.90;;
69244;SDS011;56357;52.304;4.870;2022-10-15T16:44:23;5.40;;;0.63;;
69244;SDS011;56357;52.304;4.870;2022-10-15T16:46:50;5.10;;;0.85;;
69244;SDS011;56357;52.304;4.870;2022-10-15T16:49:16;6.10;;;1.10;;
69244;SDS011;56357;52.304;4.870;2022-10-15T16:51:42;4.93;;;1.02;;
69244;SDS011;56357;52.304;4.870;2022-10-15T16:54:12;7.22;;;1.13;;
69244;SDS011;56357;52.304;4.870;2022-10-15T16:56:39;6.27;;;0.93;;